• Join FlightAware (Why Join?)
  • Login
  • US Flag 
07:40AM EST


 

Airport Tracker/Info


-or-


 

Live Flight TrackerFlight Track Log ✈ UCA4771 ✈ 18-Apr-2014 ✈ KEWR - KSYR

Flight Track Log - Related Links

Times and Time Zones

All times are in EDT time to prevent confusion due to time zone crossing. See the UCA4771 flight status page for this flight to view local times or setup timezone preferences in your user account.

Time Position Orientation Groundspeed Altitude Reporting Facility
EDT Latitude Longitude Course Direction KTS MPH feet Rate Location/Type
08:28AM 40.7000 -74.1500 49° Northeast 121 139 1,100  Level New York TRACON
08:29AM 40.7333 -74.1000 49° Northeast 164 189 2,200 1,429 Climbing New York TRACON
08:30AM 40.7667 -74.1000 360° North 172 198 4,100 1,750 Climbing New York TRACON
08:31AM 40.7833 -74.1500 294° West 167 192 5,700 1,550 Climbing New York TRACON
08:32AM 40.7833 -74.2167 270° West 174 200 7,200 1,550 Climbing New York TRACON
08:33AM 40.8333 -74.2500 333° Northwest 183 211 8,800 1,333 Climbing New York TRACON
08:34AM 40.8833 -74.2833 333° Northwest 196 226 10,000 545 Climbing New York TRACON
08:36AM 41.0008 -74.3564 335° Northwest 268 308 10,500 564 Climbing New York Center
08:37AM 41.0683 -74.3983 335° Northwest 246 283 11,700 750 Climbing New York Center
08:38AM 41.1217 -74.4261 339° North 234 269 12,000 150 Climbing New York Center
08:39AM 41.1933 -74.4686 336° Northwest 241 277 12,000  Level New York Center
08:40AM 41.2547 -74.5022 338° Northwest 251 289 12,000  Level New York Center
08:41AM 41.3192 -74.5389 337° Northwest 266 306 12,000  Level Boston Center
08:42AM 41.3917 -74.5814 336° Northwest 265 305 12,000  Level Boston Center
08:43AM 41.4383 -74.6486 313° West 255 293 12,000  Level Boston Center
08:44AM 41.4753 -74.7267 302° West 249 287 12,000  Level Boston Center
08:45AM 41.5175 -74.8078 305° West 249 287 12,000  Level New York Center
08:47AM 41.6097 -74.9508 311° West 260 299 12,000  Level Boston Center
08:48AM 41.6747 -75.0000 331° Northwest 265 305 12,000  Level Boston Center
08:49AM 41.7369 -75.0500 329° Northwest 264 304 12,000  Level Boston Center
08:50AM 41.7994 -75.1003 329° Northwest 264 304 12,000  Level Boston Center
08:51AM 41.8575 -75.1475 329° Northwest 261 300 12,000  Level Boston Center
08:52AM 41.9206 -75.1989 329° Northwest 261 300 12,000  Level Boston Center
08:53AM 41.9822 -75.2494 329° Northwest 261 300 12,000 -49 Level Boston Center
08:54AM 42.0444 -75.3019 328° Northwest 263 303 11,900 -49 Descending Boston Center
08:55AM 42.1072 -75.3478 332° Northwest 261 300 11,900  Level Boston Center
08:56AM 42.1717 -75.3908 334° Northwest 261 300 11,900  Level Boston Center
08:57AM 42.2497 -75.4456 333° Northwest 262 302 11,900  Level Boston Center
08:58AM 42.3031 -75.4836 332° Northwest 261 300 11,900 -49 Level Boston Center
08:59AM 42.3800 -75.5364 333° Northwest 261 300 11,800  Descending Boston Center
09:00AM 42.4281 -75.5722 331° Northwest 260 299 11,900 102 Climbing Boston Center
09:00AM 42.4433 -75.5825 334° Northwest 261 300 11,900  Level Boston Center
09:01AM 42.5083 -75.6283 333° Northwest 262 302 11,900 -99 Level Boston Center
09:02AM 42.5733 -75.6742 333° Northwest 269 310 11,700 -432 Descending Boston Center
09:03AM 42.6431 -75.7217 333° Northwest 265 305 11,000 -576 Descending Boston Center
09:04AM 42.7094 -75.7694 332° Northwest 271 312 10,500 -492 Descending Boston Center
09:05AM 42.7742 -75.8156 332° Northwest 264 304 10,000 -689 Descending Boston Center
09:06AM 42.8131 -75.8919 305° West 253 291 9,100 -927 Descending Boston Center
09:07AM 42.8533 -75.9744 304° West 256 295 8,100 -1,024 Descending Boston Center
09:08AM 42.8919 -76.0683 299° West 255 293 7,000 -1,033 Descending Boston Center
09:09AM 42.9269 -76.1519 300° West 251 289 6,000 -942 Descending Boston Center
09:10AM 42.9597 -76.2353 298° West 251 289 5,100 -694 Descending Boston Center
09:11AM 42.9975 -76.3025 308° West 212 244 4,600 -732 Descending Boston Center
09:12AM 43.0542 -76.3156 350° North 198 228 3,600 -1,024 Descending Boston Center
09:13AM 43.1014 -76.2658 38° Northeast 217 250 2,500 -950 Descending Boston Center
09:14AM 43.1044 -76.2022 86° East 151 174 1,700 -796 Descending Boston Center
09:15AM 43.1075 -76.1594 84° East 131 151 1,000 -581 Descending Boston Center
09:16AM 43.1078 -76.1119 90° East 128 147 500 -429 Descending Boston Center
09:18AM 43.1000 -76.1000 71° East  Level FlightAware Approximate
09:25AM 43.1112 -76.1063 71° East  Level Estimated
09:26AM 43.1112 -76.1063 247° West  Level Estimated
09:27AM 43.1112 -76.1063 247° West  Level Estimated
09:28AM 43.1112 -76.1063 71° East  Level Estimated
09:29AM 43.1112 -76.1063 158° South  Level Estimated
09:30AM 43.1112 -76.1063 158° South  Level Estimated